sensor_id;sensor_type;location;lat;lon;timestamp;temperature;humidity
22544;DHT22;11438;52.044;8.716;2023-04-01T00:00:55;14.20;99.80
22544;DHT22;11438;52.044;8.716;2023-04-01T00:03:21;14.20;99.70
22544;DHT22;11438;52.044;8.716;2023-04-01T00:05:47;14.20;99.80
22544;DHT22;11438;52.044;8.716;2023-04-01T00:08:13;14.20;99.80
22544;DHT22;11438;52.044;8.716;2023-04-01T00:10:39;14.20;99.80
22544;DHT22;11438;52.044;8.716;2023-04-01T00:13:04;14.20;99.80
22544;DHT22;11438;52.044;8.716;2023-04-01T00:15:30;14.20;99.80
22544;DHT22;11438;52.044;8.716;2023-04-01T00:17:56;14.20;99.70
22544;DHT22;11438;52.044;8.716;2023-04-01T00:20:22;14.20;99.80
22544;DHT22;11438;52.044;8.716;2023-04-01T00:22:47;14.10;99.70
22544;DHT22;11438;52.044;8.716;2023-04-01T00:25:13;14.10;99.70
22544;DHT22;11438;52.044;8.716;2023-04-01T00:27:39;14.10;99.70
22544;DHT22;11438;52.044;8.716;2023-04-01T00:30:05;14.20;99.70
22544;DHT22;11438;52.044;8.716;2023-04-01T00:32:31;14.20;99.70
22544;DHT22;11438;52.044;8.716;2023-04-01T00:34:57;14.10;99.70
22544;DHT22;11438;52.044;8.716;2023-04-01T00:37:25;14.10;99.70
22544;DHT22;11438;52.044;8.716;2023-04-01T00:39:50;14.10;99.80
22544;DHT22;11438;52.044;8.716;2023-04-01T00:42:16;14.10;99.80
22544;DHT22;11438;52.044;8.716;2023-04-01T00:44:42;14.10;99.80
22544;DHT22;11438;52.044;8.716;2023-04-01T00:47:07;14.10;99.80
22544;DHT22;11438;52.044;8.716;2023-04-01T00:49:37;14.10;99.80
22544;DHT22;11438;52.044;8.716;2023-04-01T00:52:04;14.10;99.80
22544;DHT22;11438;52.044;8.716;2023-04-01T00:54:32;14.00;99.80
22544;DHT22;11438;52.044;8.716;2023-04-01T00:57:03;14.10;99.80
22544;DHT22;11438;52.044;8.716;2023-04-01T00:59:34;14.00;99.80
22544;DHT22;11438;52.044;8.716;2023-04-01T01:02:04;14.00;99.80
22544;DHT22;11438;52.044;8.716;2023-04-01T01:04:32;14.00;99.80
22544;DHT22;11438;52.044;8.716;2023-04-01T01:12:25;14.00;99.90
22544;DHT22;11438;52.044;8.716;2023-04-01T01:23:36;14.00;99.90
22544;DHT22;11438;52.044;8.716;2023-04-01T01:34:36;13.90;99.90
22544;DHT22;11438;52.044;8.716;2023-04-01T01:37:09;13.90;99.80
22544;DHT22;11438;52.044;8.716;2023-04-01T01:39:36;13.90;99.70
22544;DHT22;11438;52.044;8.716;2023-04-01T01:42:05;13.90;99.70
22544;DHT22;11438;52.044;8.716;2023-04-01T01:44:32;13.90;99.70
22544;DHT22;11438;52.044;8.716;2023-04-01T01:46:59;13.90;99.80
22544;DHT22;11438;52.044;8.716;2023-04-01T01:49:25;13.90;99.80
22544;DHT22;11438;52.044;8.716;2023-04-01T01:51:52;13.90;99.70
22544;DHT22;11438;52.044;8.716;2023-04-01T01:54:18;13.90;99.70
22544;DHT22;11438;52.044;8.716;2023-04-01T01:56:48;13.90;99.70
22544;DHT22;11438;52.044;8.716;2023-04-01T01:59:16;13.90;99.80
22544;DHT22;11438;52.044;8.716;2023-04-01T02:01:45;13.90;99.80
22544;DHT22;11438;52.044;8.716;2023-04-01T02:04:13;13.90;99.80
22544;DHT22;11438;52.044;8.716;2023-04-01T02:06:47;13.90;99.90
22544;DHT22;11438;52.044;8.716;2023-04-01T02:09:15;13.90;99.80
22544;DHT22;11438;52.044;8.716;2023-04-01T02:11:41;13.90;99.80
22544;DHT22;11438;52.044;8.716;2023-04-01T02:14:24;13.90;99.80
22544;DHT22;11438;52.044;8.716;2023-04-01T02:16:59;13.90;99.90
22544;DHT22;11438;52.044;8.716;2023-04-01T02:19:56;13.80;99.80
22544;DHT22;11438;52.044;8.716;2023-04-01T02:22:22;13.90;99.90
22544;DHT22;11438;52.044;8.716;2023-04-01T02:24:50;13.80;99.90
22544;DHT22;11438;52.044;8.716;2023-04-01T02:27:18;13.80;99.90
22544;DHT22;11438;52.044;8.716;2023-04-01T02:29:44;13.80;99.90
22544;DHT22;11438;52.044;8.716;2023-04-01T02:32:10;13.80;99.90
22544;DHT22;11438;52.044;8.716;2023-04-01T02:34:36;13.80;99.90
22544;DHT22;11438;52.044;8.716;2023-04-01T02:37:02;13.80;99.90
22544;DHT22;11438;52.044;8.716;2023-04-01T02:39:27;13.80;99.90
22544;DHT22;11438;52.044;8.716;2023-04-01T02:41:53;13.80;99.90
22544;DHT22;11438;52.044;8.716;2023-04-01T02:44:19;13.80;99.90
22544;DHT22;11438;52.044;8.716;2023-04-01T02:46:44;13.80;99.90
22544;DHT22;11438;52.044;8.716;2023-04-01T02:49:10;13.80;99.90
22544;DHT22;11438;52.044;8.716;2023-04-01T02:51:36;13.70;99.90
22544;DHT22;11438;52.044;8.716;2023-04-01T02:54:02;13.80;99.90
22544;DHT22;11438;52.044;8.716;2023-04-01T02:56:28;13.80;99.90
22544;DHT22;11438;52.044;8.716;2023-04-01T02:58:54;13.80;99.90
22544;DHT22;11438;52.044;8.716;2023-04-01T03:01:19;13.70;99.90
22544;DHT22;11438;52.044;8.716;2023-04-01T03:03:45;13.80;99.90
22544;DHT22;11438;52.044;8.716;2023-04-01T03:06:13;13.70;99.90
22544;DHT22;11438;52.044;8.716;2023-04-01T03:08:39;13.70;99.90
22544;DHT22;11438;52.044;8.716;2023-04-01T03:11:05;13.70;99.90
22544;DHT22;11438;52.044;8.716;2023-04-01T03:13:31;13.70;99.90
22544;DHT22;11438;52.044;8.716;2023-04-01T03:15:56;13.70;99.90
22544;DHT22;11438;52.044;8.716;2023-04-01T03:18:22;13.70;99.90
22544;DHT22;11438;52.044;8.716;2023-04-01T03:20:48;13.70;99.90
22544;DHT22;11438;52.044;8.716;2023-04-01T03:23:13;13.70;99.90
22544;DHT22;11438;52.044;8.716;2023-04-01T03:25:39;13.70;99.90
22544;DHT22;11438;52.044;8.716;2023-04-01T03:28:05;13.70;99.90
22544;DHT22;11438;52.044;8.716;2023-04-01T03:30:30;13.70;99.90
22544;DHT22;11438;52.044;8.716;2023-04-01T03:32:57;13.60;99.90
22544;DHT22;11438;52.044;8.716;2023-04-01T03:35:23;13.70;99.90
22544;DHT22;11438;52.044;8.716;2023-04-01T03:37:51;13.70;99.90
22544;DHT22;11438;52.044;8.716;2023-04-01T03:40:16;13.70;99.90
22544;DHT22;11438;52.044;8.716;2023-04-01T03:42:42;13.60;99.90
22544;DHT22;11438;52.044;8.716;2023-04-01T03:45:08;13.70;99.90
22544;DHT22;11438;52.044;8.716;2023-04-01T03:47:34;13.70;99.90
22544;DHT22;11438;52.044;8.716;2023-04-01T03:50:00;13.70;99.90
22544;DHT22;11438;52.044;8.716;2023-04-01T03:52:25;13.70;99.90
22544;DHT22;11438;52.044;8.716;2023-04-01T03:54:51;13.60;99.90
22544;DHT22;11438;52.044;8.716;2023-04-01T03:57:16;13.60;99.90
22544;DHT22;11438;52.044;8.716;2023-04-01T03:59:42;13.60;99.90
22544;DHT22;11438;52.044;8.716;2023-04-01T04:02:07;13.70;99.90
22544;DHT22;11438;52.044;8.716;2023-04-01T04:04:33;13.60;99.90
22544;DHT22;11438;52.044;8.716;2023-04-01T04:06:59;13.60;99.90
22544;DHT22;11438;52.044;8.716;2023-04-01T04:09:24;13.60;99.90
22544;DHT22;11438;52.044;8.716;2023-04-01T04:11:50;13.60;99.90
22544;DHT22;11438;52.044;8.716;2023-04-01T04:14:16;13.60;99.90
22544;DHT22;11438;52.044;8.716;2023-04-01T04:16:41;13.60;99.90
22544;DHT22;11438;52.044;8.716;2023-04-01T04:19:07;13.60;99.90
22544;DHT22;11438;52.044;8.716;2023-04-01T04:21:32;13.60;99.90
22544;DHT22;11438;52.044;8.716;2023-04-01T04:24:01;13.60;99.90
22544;DHT22;11438;52.044;8.716;2023-04-01T04:26:27;13.60;99.90
22544;DHT22;11438;52.044;8.716;2023-04-01T04:28:53;13.60;99.90
22544;DHT22;11438;52.044;8.716;2023-04-01T04:31:20;13.60;99.90
22544;DHT22;11438;52.044;8.716;2023-04-01T04:33:46;13.60;99.90
22544;DHT22;11438;52.044;8.716;2023-04-01T04:36:12;13.50;99.90
22544;DHT22;11438;52.044;8.716;2023-04-01T04:38:38;13.50;99.90
22544;DHT22;11438;52.044;8.716;2023-04-01T04:41:07;13.60;99.90
22544;DHT22;11438;52.044;8.716;2023-04-01T04:43:33;13.50;99.90
22544;DHT22;11438;52.044;8.716;2023-04-01T04:45:58;13.50;99.90
22544;DHT22;11438;52.044;8.716;2023-04-01T04:48:24;13.50;99.90
22544;DHT22;11438;52.044;8.716;2023-04-01T04:50:50;13.50;99.90
22544;DHT22;11438;52.044;8.716;2023-04-01T04:53:17;13.50;99.90
22544;DHT22;11438;52.044;8.716;2023-04-01T04:55:44;13.50;99.90
22544;DHT22;11438;52.044;8.716;2023-04-01T04:58:10;13.50;99.90
22544;DHT22;11438;52.044;8.716;2023-04-01T05:00:36;13.50;99.90
22544;DHT22;11438;52.044;8.716;2023-04-01T05:03:01;13.50;99.90
22544;DHT22;11438;52.044;8.716;2023-04-01T05:05:27;13.50;99.90
22544;DHT22;11438;52.044;8.716;2023-04-01T05:07:52;13.50;99.90
22544;DHT22;11438;52.044;8.716;2023-04-01T05:10:18;13.50;99.90
22544;DHT22;11438;52.044;8.716;2023-04-01T05:12:43;13.50;99.90
22544;DHT22;11438;52.044;8.716;2023-04-01T05:15:09;13.50;99.90
22544;DHT22;11438;52.044;8.716;2023-04-01T05:17:34;13.50;99.90
22544;DHT22;11438;52.044;8.716;2023-04-01T05:20:00;13.40;99.90
22544;DHT22;11438;52.044;8.716;2023-04-01T05:22:26;13.40;99.90
22544;DHT22;11438;52.044;8.716;2023-04-01T05:24:51;13.40;99.90
22544;DHT22;11438;52.044;8.716;2023-04-01T05:27:17;13.40;99.90
22544;DHT22;11438;52.044;8.716;2023-04-01T05:29:43;13.40;99.90
22544;DHT22;11438;52.044;8.716;2023-04-01T05:32:08;13.40;99.90
22544;DHT22;11438;52.044;8.716;2023-04-01T05:34:34;13.40;99.90
22544;DHT22;11438;52.044;8.716;2023-04-01T05:36:59;13.40;99.90
22544;DHT22;11438;52.044;8.716;2023-04-01T05:39:25;13.40;99.90
22544;DHT22;11438;52.044;8.716;2023-04-01T05:41:50;13.40;99.90
22544;DHT22;11438;52.044;8.716;2023-04-01T05:44:16;13.40;99.90
22544;DHT22;11438;52.044;8.716;2023-04-01T05:46:42;13.40;99.90
22544;DHT22;11438;52.044;8.716;2023-04-01T05:49:07;13.40;99.90
22544;DHT22;11438;52.044;8.716;2023-04-01T05:51:33;13.40;99.90
22544;DHT22;11438;52.044;8.716;2023-04-01T05:53:58;13.40;99.90
22544;DHT22;11438;52.044;8.716;2023-04-01T05:56:24;13.30;99.90
22544;DHT22;11438;52.044;8.716;2023-04-01T05:58:52;13.40;99.90
22544;DHT22;11438;52.044;8.716;2023-04-01T06:01:19;13.40;99.90
22544;DHT22;11438;52.044;8.716;2023-04-01T06:03:45;13.40;99.90
22544;DHT22;11438;52.044;8.716;2023-04-01T06:06:20;13.30;99.90
22544;DHT22;11438;52.044;8.716;2023-04-01T06:08:48;13.40;99.90
22544;DHT22;11438;52.044;8.716;2023-04-01T06:11:41;13.30;99.90
22544;DHT22;11438;52.044;8.716;2023-04-01T06:17:00;13.40;99.90
22544;DHT22;11438;52.044;8.716;2023-04-01T06:25:21;13.40;99.90
22544;DHT22;11438;52.044;8.716;2023-04-01T06:36:21;13.40;99.90
22544;DHT22;11438;52.044;8.716;2023-04-01T06:39:31;13.40;99.90
22544;DHT22;11438;52.044;8.716;2023-04-01T06:50:48;13.50;99.90
22544;DHT22;11438;52.044;8.716;2023-04-01T06:53:37;13.50;99.90
22544;DHT22;11438;52.044;8.716;2023-04-01T06:56:14;13.60;99.90
22544;DHT22;11438;52.044;8.716;2023-04-01T06:58:46;13.60;99.90
22544;DHT22;11438;52.044;8.716;2023-04-01T07:01:18;13.70;99.90
22544;DHT22;11438;52.044;8.716;2023-04-01T07:03:56;13.70;99.90
22544;DHT22;11438;52.044;8.716;2023-04-01T07:06:28;13.80;99.90
22544;DHT22;11438;52.044;8.716;2023-04-01T07:08:58;13.90;99.90
22544;DHT22;11438;52.044;8.716;2023-04-01T07:11:31;13.90;99.90
22544;DHT22;11438;52.044;8.716;2023-04-01T07:14:22;14.00;99.90
22544;DHT22;11438;52.044;8.716;2023-04-01T07:17:11;14.00;99.90
22544;DHT22;11438;52.044;8.716;2023-04-01T07:22:48;14.10;99.90
22544;DHT22;11438;52.044;8.716;2023-04-01T07:27:45;14.20;99.90
22544;DHT22;11438;52.044;8.716;2023-04-01T07:30:16;14.20;99.90
22544;DHT22;11438;52.044;8.716;2023-04-01T07:32:44;14.20;99.90
22544;DHT22;11438;52.044;8.716;2023-04-01T07:35:38;14.20;99.90
22544;DHT22;11438;52.044;8.716;2023-04-01T07:41:05;14.30;99.90
22544;DHT22;11438;52.044;8.716;2023-04-01T07:43:44;14.20;99.90
22544;DHT22;11438;52.044;8.716;2023-04-01T07:51:35;14.20;99.90
22544;DHT22;11438;52.044;8.716;2023-04-01T08:00:20;14.20;99.90
22544;DHT22;11438;52.044;8.716;2023-04-01T08:03:20;14.20;99.90
22544;DHT22;11438;52.044;8.716;2023-04-01T08:06:00;14.10;99.90
22544;DHT22;11438;52.044;8.716;2023-04-01T08:11:35;14.10;99.90
22544;DHT22;11438;52.044;8.716;2023-04-01T08:14:18;14.10;99.90
22544;DHT22;11438;52.044;8.716;2023-04-01T08:20:03;14.10;99.90
22544;DHT22;11438;52.044;8.716;2023-04-01T08:22:36;14.10;99.90
22544;DHT22;11438;52.044;8.716;2023-04-01T08:25:04;14.20;99.90
22544;DHT22;11438;52.044;8.716;2023-04-01T08:27:46;14.20;99.90
22544;DHT22;11438;52.044;8.716;2023-04-01T08:33:00;14.20;99.90
22544;DHT22;11438;52.044;8.716;2023-04-01T08:35:38;14.20;99.90
22544;DHT22;11438;52.044;8.716;2023-04-01T08:38:11;14.20;99.90
22544;DHT22;11438;52.044;8.716;2023-04-01T08:40:56;14.20;99.90
22544;DHT22;11438;52.044;8.716;2023-04-01T08:43:39;14.30;99.90
22544;DHT22;11438;52.044;8.716;2023-04-01T08:46:35;14.30;99.90
22544;DHT22;11438;52.044;8.716;2023-04-01T08:57:54;14.50;99.90
22544;DHT22;11438;52.044;8.716;2023-04-01T09:00:31;14.50;99.90
22544;DHT22;11438;52.044;8.716;2023-04-01T09:11:30;14.80;99.90
22544;DHT22;11438;52.044;8.716;2023-04-01T09:28:56;15.10;99.90
22544;DHT22;11438;52.044;8.716;2023-04-01T09:34:38;15.20;99.90
22544;DHT22;11438;52.044;8.716;2023-04-01T09:43:26;15.30;99.90
22544;DHT22;11438;52.044;8.716;2023-04-01T09:54:36;15.50;99.90
22544;DHT22;11438;52.044;8.716;2023-04-01T10:00:03;15.50;99.90
22544;DHT22;11438;52.044;8.716;2023-04-01T10:02:50;15.50;99.90
22544;DHT22;11438;52.044;8.716;2023-04-01T10:11:00;15.70;99.90
22544;DHT22;11438;52.044;8.716;2023-04-01T10:21:37;16.00;99.90
22544;DHT22;11438;52.044;8.716;2023-04-01T10:24:25;16.00;99.90
22544;DHT22;11438;52.044;8.716;2023-04-01T10:41:40;16.10;99.90
22544;DHT22;11438;52.044;8.716;2023-04-01T10:47:25;16.10;99.90
22544;DHT22;11438;52.044;8.716;2023-04-01T11:13:00;16.70;99.90
22544;DHT22;11438;52.044;8.716;2023-04-01T11:21:11;16.90;99.90
22544;DHT22;11438;52.044;8.716;2023-04-01T11:33:34;16.80;99.50
22544;DHT22;11438;52.044;8.716;2023-04-01T11:41:38;16.70;99.90
22544;DHT22;11438;52.044;8.716;2023-04-01T11:44:26;16.70;99.90
22544;DHT22;11438;52.044;8.716;2023-04-01T11:47:14;16.70;99.90
22544;DHT22;11438;52.044;8.716;2023-04-01T11:50:10;16.80;99.90
22544;DHT22;11438;52.044;8.716;2023-04-01T11:53:02;16.80;99.90
22544;DHT22;11438;52.044;8.716;2023-04-01T11:58:43;16.90;99.90
22544;DHT22;11438;52.044;8.716;2023-04-01T12:07:09;17.10;99.90
22544;DHT22;11438;52.044;8.716;2023-04-01T12:09:58;17.10;99.70
22544;DHT22;11438;52.044;8.716;2023-04-01T12:15:54;17.30;99.60
22544;DHT22;11438;52.044;8.716;2023-04-01T12:18:48;17.20;99.50
22544;DHT22;11438;52.044;8.716;2023-04-01T12:21:36;17.30;99.40
22544;DHT22;11438;52.044;8.716;2023-04-01T12:24:25;17.30;99.30
22544;DHT22;11438;52.044;8.716;2023-04-01T12:29:57;17.30;99.00
22544;DHT22;11438;52.044;8.716;2023-04-01T12:41:02;17.30;99.70
22544;DHT22;11438;52.044;8.716;2023-04-01T12:52:13;17.50;99.50
22544;DHT22;11438;52.044;8.716;2023-04-01T12:59:47;17.70;99.20
22544;DHT22;11438;52.044;8.716;2023-04-01T13:02:26;17.70;99.10
22544;DHT22;11438;52.044;8.716;2023-04-01T13:05:15;17.80;99.00
22544;DHT22;11438;52.044;8.716;2023-04-01T13:08:22;17.80;99.00
22544;DHT22;11438;52.044;8.716;2023-04-01T13:11:14;17.90;99.00
22544;DHT22;11438;52.044;8.716;2023-04-01T13:19:55;18.10;98.80
22544;DHT22;11438;52.044;8.716;2023-04-01T13:25:17;18.20;98.50
22544;DHT22;11438;52.044;8.716;2023-04-01T13:27:49;18.10;98.40
22544;DHT22;11438;52.044;8.716;2023-04-01T13:30:24;18.20;98.10
22544;DHT22;11438;52.044;8.716;2023-04-01T13:38:54;18.20;98.00
22544;DHT22;11438;52.044;8.716;2023-04-01T13:41:46;18.20;98.00
22544;DHT22;11438;52.044;8.716;2023-04-01T13:44:28;18.20;98.00
22544;DHT22;11438;52.044;8.716;2023-04-01T13:47:29;18.20;98.00
22544;DHT22;11438;52.044;8.716;2023-04-01T13:52:44;18.20;97.70
22544;DHT22;11438;52.044;8.716;2023-04-01T13:55:29;18.20;97.80
22544;DHT22;11438;52.044;8.716;2023-04-01T14:09:08;18.20;97.60
22544;DHT22;11438;52.044;8.716;2023-04-01T14:15:03;18.20;97.60
22544;DHT22;11438;52.044;8.716;2023-04-01T14:20:25;18.20;97.80
22544;DHT22;11438;52.044;8.716;2023-04-01T14:23:21;18.20;97.60
22544;DHT22;11438;52.044;8.716;2023-04-01T14:26:02;18.20;97.80
22544;DHT22;11438;52.044;8.716;2023-04-01T14:34:50;18.20;97.80
22544;DHT22;11438;52.044;8.716;2023-04-01T14:40:28;18.10;97.80
22544;DHT22;11438;52.044;8.716;2023-04-01T14:45:54;18.10;97.80
22544;DHT22;11438;52.044;8.716;2023-04-01T14:49:02;18.00;97.70
22544;DHT22;11438;52.044;8.716;2023-04-01T14:51:30;18.00;97.80
22544;DHT22;11438;52.044;8.716;2023-04-01T14:54:06;18.00;97.80
22544;DHT22;11438;52.044;8.716;2023-04-01T14:57:07;18.00;97.80
22544;DHT22;11438;52.044;8.716;2023-04-01T14:59:40;18.00;97.90
22544;DHT22;11438;52.044;8.716;2023-04-01T15:02:45;18.00;97.70
22544;DHT22;11438;52.044;8.716;2023-04-01T15:05:23;17.90;97.80
22544;DHT22;11438;52.044;8.716;2023-04-01T15:08:01;17.90;97.70
22544;DHT22;11438;52.044;8.716;2023-04-01T15:10:48;17.90;97.80
22544;DHT22;11438;52.044;8.716;2023-04-01T15:22:12;17.80;97.70
22544;DHT22;11438;52.044;8.716;2023-04-01T15:30:14;17.80;97.60
22544;DHT22;11438;52.044;8.716;2023-04-01T15:33:17;17.80;97.60
22544;DHT22;11438;52.044;8.716;2023-04-01T15:36:06;17.70;97.50
22544;DHT22;11438;52.044;8.716;2023-04-01T15:38:48;17.70;97.40
22544;DHT22;11438;52.044;8.716;2023-04-01T15:41:23;17.70;97.60
22544;DHT22;11438;52.044;8.716;2023-04-01T15:43:51;17.60;97.60
22544;DHT22;11438;52.044;8.716;2023-04-01T15:55:00;17.40;97.20
22544;DHT22;11438;52.044;8.716;2023-04-01T16:01:04;17.30;97.50
22544;DHT22;11438;52.044;8.716;2023-04-01T16:09:29;17.10;97.70
22544;DHT22;11438;52.044;8.716;2023-04-01T16:12:19;17.10;97.80
22544;DHT22;11438;52.044;8.716;2023-04-01T16:22:38;17.00;98.00
22544;DHT22;11438;52.044;8.716;2023-04-01T16:31:03;16.90;98.20
22544;DHT22;11438;52.044;8.716;2023-04-01T16:39:17;16.80;98.40
22544;DHT22;11438;52.044;8.716;2023-04-01T16:41:53;16.80;98.40
22544;DHT22;11438;52.044;8.716;2023-04-01T16:44:25;16.80;98.50
22544;DHT22;11438;52.044;8.716;2023-04-01T16:47:07;16.80;98.50
22544;DHT22;11438;52.044;8.716;2023-04-01T16:52:15;16.80;98.50
22544;DHT22;11438;52.044;8.716;2023-04-01T16:55:01;16.80;98.50
22544;DHT22;11438;52.044;8.716;2023-04-01T16:57:31;16.80;98.50
22544;DHT22;11438;52.044;8.716;2023-04-01T17:00:22;16.70;98.50
22544;DHT22;11438;52.044;8.716;2023-04-01T17:05:49;16.70;98.60
22544;DHT22;11438;52.044;8.716;2023-04-01T17:10:57;16.70;98.60
22544;DHT22;11438;52.044;8.716;2023-04-01T17:13:52;16.70;98.50
22544;DHT22;11438;52.044;8.716;2023-04-01T17:16:45;16.60;98.00
22544;DHT22;11438;52.044;8.716;2023-04-01T17:19:42;16.60;97.90
22544;DHT22;11438;52.044;8.716;2023-04-01T17:22:26;16.50;97.70
22544;DHT22;11438;52.044;8.716;2023-04-01T17:25:13;16.40;97.70
22544;DHT22;11438;52.044;8.716;2023-04-01T17:33:22;16.10;97.50
22544;DHT22;11438;52.044;8.716;2023-04-01T17:36:11;16.00;97.50
22544;DHT22;11438;52.044;8.716;2023-04-01T17:39:04;15.90;97.50
22544;DHT22;11438;52.044;8.716;2023-04-01T17:45:00;15.70;97.60
22544;DHT22;11438;52.044;8.716;2023-04-01T17:47:49;15.70;97.60
22544;DHT22;11438;52.044;8.716;2023-04-01T17:50:24;15.60;97.60
22544;DHT22;11438;52.044;8.716;2023-04-01T17:55:47;15.40;97.70
22544;DHT22;11438;52.044;8.716;2023-04-01T17:58:44;15.30;97.60
22544;DHT22;11438;52.044;8.716;2023-04-01T18:01:49;15.20;97.50
22544;DHT22;11438;52.044;8.716;2023-04-01T18:04:28;15.10;97.60
22544;DHT22;11438;52.044;8.716;2023-04-01T18:07:27;15.00;97.70
22544;DHT22;11438;52.044;8.716;2023-04-01T18:13:21;14.90;98.10
22544;DHT22;11438;52.044;8.716;2023-04-01T18:16:18;14.80;98.10
22544;DHT22;11438;52.044;8.716;2023-04-01T18:22:17;14.70;98.10
22544;DHT22;11438;52.044;8.716;2023-04-01T18:28:09;14.60;98.10
22544;DHT22;11438;52.044;8.716;2023-04-01T18:30:35;14.60;98.20
22544;DHT22;11438;52.044;8.716;2023-04-01T18:33:15;14.50;98.10
22544;DHT22;11438;52.044;8.716;2023-04-01T18:35:50;14.50;98.10
22544;DHT22;11438;52.044;8.716;2023-04-01T18:38:34;14.40;98.20
22544;DHT22;11438;52.044;8.716;2023-04-01T18:41:28;14.40;98.50
22544;DHT22;11438;52.044;8.716;2023-04-01T18:52:45;14.20;98.20
22544;DHT22;11438;52.044;8.716;2023-04-01T18:55:33;14.20;98.30
22544;DHT22;11438;52.044;8.716;2023-04-01T18:58:32;14.10;98.30
22544;DHT22;11438;52.044;8.716;2023-04-01T19:01:07;14.10;98.30
22544;DHT22;11438;52.044;8.716;2023-04-01T19:04:00;14.10;98.40
22544;DHT22;11438;52.044;8.716;2023-04-01T19:06:43;14.10;98.40
22544;DHT22;11438;52.044;8.716;2023-04-01T19:09:22;14.10;98.50
22544;DHT22;11438;52.044;8.716;2023-04-01T19:12:05;14.00;98.30
22544;DHT22;11438;52.044;8.716;2023-04-01T19:15:07;14.00;98.20
22544;DHT22;11438;52.044;8.716;2023-04-01T19:20:56;13.90;98.20
22544;DHT22;11438;52.044;8.716;2023-04-01T19:23:39;13.90;98.10
22544;DHT22;11438;52.044;8.716;2023-04-01T19:29:12;13.80;98.00
22544;DHT22;11438;52.044;8.716;2023-04-01T19:35:18;13.70;98.00
22544;DHT22;11438;52.044;8.716;2023-04-01T19:38:01;13.60;98.00
22544;DHT22;11438;52.044;8.716;2023-04-01T19:41:04;13.60;98.00
22544;DHT22;11438;52.044;8.716;2023-04-01T19:46:42;13.40;98.00
22544;DHT22;11438;52.044;8.716;2023-04-01T19:52:58;13.30;97.90
22544;DHT22;11438;52.044;8.716;2023-04-01T19:55:05;13.30;97.80
22544;DHT22;11438;52.044;8.716;2023-04-01T19:57:47;13.30;97.70
22544;DHT22;11438;52.044;8.716;2023-04-01T20:03:05;13.20;97.70
22544;DHT22;11438;52.044;8.716;2023-04-01T20:05:46;13.10;97.60
22544;DHT22;11438;52.044;8.716;2023-04-01T20:08:19;13.00;97.70
22544;DHT22;11438;52.044;8.716;2023-04-01T20:11:05;13.00;97.80
22544;DHT22;11438;52.044;8.716;2023-04-01T20:13:51;12.90;97.80
22544;DHT22;11438;52.044;8.716;2023-04-01T20:16:20;12.90;97.90
22544;DHT22;11438;52.044;8.716;2023-04-01T20:18:55;12.80;97.90
22544;DHT22;11438;52.044;8.716;2023-04-01T20:24:21;12.70;97.90
22544;DHT22;11438;52.044;8.716;2023-04-01T20:27:08;12.70;98.10
22544;DHT22;11438;52.044;8.716;2023-04-01T20:29:55;12.70;98.10
22544;DHT22;11438;52.044;8.716;2023-04-01T20:35:26;12.70;98.10
22544;DHT22;11438;52.044;8.716;2023-04-01T20:44:08;12.60;98.10
22544;DHT22;11438;52.044;8.716;2023-04-01T20:46:53;12.60;98.10
22544;DHT22;11438;52.044;8.716;2023-04-01T20:49:33;12.50;98.10
22544;DHT22;11438;52.044;8.716;2023-04-01T20:55:27;12.50;98.00
22544;DHT22;11438;52.044;8.716;2023-04-01T20:58:20;12.40;98.00
22544;DHT22;11438;52.044;8.716;2023-04-01T21:01:01;12.40;98.00
22544;DHT22;11438;52.044;8.716;2023-04-01T21:04:00;12.40;97.90
22544;DHT22;11438;52.044;8.716;2023-04-01T21:06:59;12.40;97.90
22544;DHT22;11438;52.044;8.716;2023-04-01T21:18:22;12.20;97.80
22544;DHT22;11438;52.044;8.716;2023-04-01T21:29:44;12.00;97.70
22544;DHT22;11438;52.044;8.716;2023-04-01T21:35:36;11.90;97.80
22544;DHT22;11438;52.044;8.716;2023-04-01T21:41:32;11.80;97.80
22544;DHT22;11438;52.044;8.716;2023-04-01T21:47:22;11.70;97.90
22544;DHT22;11438;52.044;8.716;2023-04-01T21:50:08;11.70;97.90
22544;DHT22;11438;52.044;8.716;2023-04-01T22:03:27;11.50;97.70
22544;DHT22;11438;52.044;8.716;2023-04-01T22:06:22;11.50;97.70
22544;DHT22;11438;52.044;8.716;2023-04-01T22:14:28;11.30;97.60
22544;DHT22;11438;52.044;8.716;2023-04-01T22:16:59;11.30;97.80
22544;DHT22;11438;52.044;8.716;2023-04-01T22:28:41;11.10;97.70
22544;DHT22;11438;52.044;8.716;2023-04-01T22:31:13;11.10;97.70
22544;DHT22;11438;52.044;8.716;2023-04-01T22:34:05;11.00;97.80
22544;DHT22;11438;52.044;8.716;2023-04-01T22:36:44;11.00;97.80
22544;DHT22;11438;52.044;8.716;2023-04-01T22:39:28;11.00;97.80
22544;DHT22;11438;52.044;8.716;2023-04-01T22:42:06;10.90;97.80
22544;DHT22;11438;52.044;8.716;2023-04-01T22:45:06;10.90;97.80
22544;DHT22;11438;52.044;8.716;2023-04-01T22:48:20;10.90;97.80
22544;DHT22;11438;52.044;8.716;2023-04-01T22:50:50;10.90;97.60
22544;DHT22;11438;52.044;8.716;2023-04-01T22:53:48;10.90;97.60
22544;DHT22;11438;52.044;8.716;2023-04-01T22:56:23;10.80;97.40
22544;DHT22;11438;52.044;8.716;2023-04-01T22:59:00;10.80;97.40
22544;DHT22;11438;52.044;8.716;2023-04-01T23:01:32;10.70;97.50
22544;DHT22;11438;52.044;8.716;2023-04-01T23:04:00;10.70;97.60
22544;DHT22;11438;52.044;8.716;2023-04-01T23:06:35;10.70;97.60
22544;DHT22;11438;52.044;8.716;2023-04-01T23:09:11;10.60;97.50
22544;DHT22;11438;52.044;8.716;2023-04-01T23:11:54;10.70;97.60
22544;DHT22;11438;52.044;8.716;2023-04-01T23:20:02;10.70;97.70
22544;DHT22;11438;52.044;8.716;2023-04-01T23:25:43;10.60;97.70
22544;DHT22;11438;52.044;8.716;2023-04-01T23:28:41;10.60;97.70
22544;DHT22;11438;52.044;8.716;2023-04-01T23:31:37;10.60;97.70
22544;DHT22;11438;52.044;8.716;2023-04-01T23:34:21;10.50;97.70
22544;DHT22;11438;52.044;8.716;2023-04-01T23:36:50;10.50;97.60
22544;DHT22;11438;52.044;8.716;2023-04-01T23:42:03;10.50;97.70
22544;DHT22;11438;52.044;8.716;2023-04-01T23:44:29;10.40;97.80
22544;DHT22;11438;52.044;8.716;2023-04-01T23:46:55;10.40;97.90
22544;DHT22;11438;52.044;8.716;2023-04-01T23:49:28;10.40;97.90
22544;DHT22;11438;52.044;8.716;2023-04-01T23:52:02;10.40;97.90
22544;DHT22;11438;52.044;8.716;2023-04-01T23:55:11;10.40;98.40
22544;DHT22;11438;52.044;8.716;2023-04-01T23:57:38;10.40;98.00
